createdAt,value
2019-06-26T00:02:04.975Z,1.87
2019-06-26T00:04:33.568Z,1.70
2019-06-26T00:07:02.176Z,2.22
2019-06-26T00:09:31.973Z,2.22
2019-06-26T00:12:00.814Z,2.20
2019-06-26T00:14:29.410Z,2.50
2019-06-26T00:16:58.091Z,2.22
2019-06-26T00:19:26.721Z,2.12
2019-06-26T00:21:58.051Z,2.00
2019-06-26T00:24:26.678Z,2.02
2019-06-26T00:26:55.407Z,2.30
2019-06-26T00:29:24.005Z,1.90
2019-06-26T00:31:52.627Z,1.80
2019-06-26T00:34:21.206Z,1.90
2019-06-26T00:36:49.802Z,1.75
2019-06-26T00:39:19.548Z,2.10
2019-06-26T00:41:48.202Z,2.02
2019-06-26T00:44:16.811Z,2.20
2019-06-26T00:46:45.657Z,2.02
2019-06-26T00:49:14.416Z,2.00
2019-06-26T00:51:43.019Z,2.05
2019-06-26T00:54:11.688Z,2.10
2019-06-26T00:56:40.426Z,1.98
2019-06-26T00:59:09.389Z,2.40
2019-06-26T01:01:37.964Z,2.30
2019-06-26T01:04:08.275Z,2.42
2019-06-26T01:06:41.660Z,2.20
2019-06-26T01:09:10.493Z,2.12
2019-06-26T01:11:39.107Z,2.10
2019-06-26T01:14:07.826Z,2.30
2019-06-26T01:16:36.480Z,2.90
2019-06-26T01:19:05.444Z,2.52
2019-06-26T01:21:34.261Z,3.22
2019-06-26T01:24:02.896Z,3.67
2019-06-26T01:26:33.536Z,3.05
2019-06-26T01:29:02.261Z,3.30
2019-06-26T01:31:31.583Z,3.25
2019-06-26T01:34:00.223Z,3.10
2019-06-26T01:36:28.826Z,3.62
2019-06-26T01:38:57.455Z,2.80
2019-06-26T01:41:26.049Z,2.98
2019-06-26T01:43:54.713Z,2.30
2019-06-26T01:46:23.382Z,2.37
2019-06-26T01:48:52.027Z,2.17
2019-06-26T01:51:20.879Z,1.77
2019-06-26T01:53:49.456Z,1.57
2019-06-26T01:56:18.720Z,2.40
2019-06-26T01:58:47.356Z,2.33
2019-06-26T02:01:16.134Z,1.72
2019-06-26T02:03:44.752Z,2.20
2019-06-26T02:06:13.533Z,2.10
2019-06-26T02:08:42.254Z,2.17
2019-06-26T02:11:10.937Z,2.30
2019-06-26T02:13:39.654Z,1.70
2019-06-26T02:16:08.227Z,2.37
2019-06-26T02:18:38.452Z,2.27
2019-06-26T02:21:07.206Z,2.55
2019-06-26T02:23:35.765Z,2.42
2019-06-26T02:26:04.643Z,2.72
2019-06-26T02:28:33.220Z,2.90
2019-06-26T02:31:01.907Z,3.17
2019-06-26T02:33:30.579Z,3.17
2019-06-26T02:35:59.290Z,2.92
2019-06-26T02:38:27.988Z,2.60
2019-06-26T02:40:56.638Z,2.98
2019-06-26T02:43:25.198Z,2.40
2019-06-26T02:45:53.929Z,2.72
2019-06-26T02:48:22.519Z,2.20
2019-06-26T02:50:51.306Z,2.67
2019-06-26T02:53:21.548Z,3.08
2019-06-26T02:55:50.180Z,2.25
2019-06-26T02:58:18.922Z,2.70
2019-06-26T03:00:47.547Z,2.85
2019-06-26T03:03:16.140Z,2.65
2019-06-26T03:05:44.737Z,2.95
2019-06-26T03:08:13.534Z,2.42
2019-06-26T03:10:42.144Z,2.22
2019-06-26T03:13:10.833Z,2.72
2019-06-26T03:15:39.589Z,1.92
2019-06-26T03:18:08.242Z,2.62
2019-06-26T03:20:45.847Z,2.20
2019-06-26T03:23:14.484Z,3.08
2019-06-26T03:25:43.084Z,2.42
2019-06-26T03:28:11.657Z,2.22
2019-06-26T03:30:40.335Z,2.45
2019-06-26T03:33:08.956Z,2.58
2019-06-26T03:35:40.603Z,2.35
2019-06-26T03:38:07.981Z,2.58
2019-06-26T03:40:38.198Z,2.20
2019-06-26T03:43:07.239Z,2.35
2019-06-26T03:45:35.914Z,2.50
2019-06-26T03:48:04.843Z,2.80
2019-06-26T03:50:33.631Z,2.50
2019-06-26T03:53:02.190Z,2.37
2019-06-26T03:55:30.949Z,3.08
2019-06-26T03:57:59.599Z,2.20
2019-06-26T04:00:39.900Z,2.12
2019-06-26T04:03:09.243Z,2.62
2019-06-26T04:05:37.926Z,2.15
2019-06-26T04:08:06.890Z,2.30
2019-06-26T04:10:36.131Z,2.40
2019-06-26T04:13:05.282Z,2.00
2019-06-26T04:15:42.045Z,3.05
2019-06-26T04:18:04.622Z,2.70
2019-06-26T04:20:33.184Z,2.12
2019-06-26T04:23:01.830Z,2.22
2019-06-26T04:25:30.405Z,2.37
2019-06-26T04:27:59.072Z,2.62
2019-06-26T04:30:27.935Z,2.08
2019-06-26T04:32:56.552Z,2.85
2019-06-26T04:35:25.112Z,2.35
2019-06-26T04:37:53.749Z,2.52
2019-06-26T04:40:22.464Z,1.72
2019-06-26T04:42:51.158Z,1.95
2019-06-26T04:45:20.468Z,2.30
2019-06-26T04:47:49.237Z,2.20
2019-06-26T04:50:18.667Z,2.20
2019-06-26T04:52:47.336Z,2.83
2019-06-26T04:55:16.326Z,1.82
2019-06-26T04:57:44.913Z,2.45
2019-06-26T05:00:14.263Z,2.45
2019-06-26T05:02:42.933Z,2.50
2019-06-26T05:05:12.206Z,2.25
2019-06-26T05:07:40.925Z,2.47
2019-06-26T05:10:10.099Z,2.08
2019-06-26T05:12:38.973Z,2.40
2019-06-26T05:15:08.595Z,2.52
2019-06-26T05:17:37.323Z,2.65
2019-06-26T05:20:09.658Z,2.30
2019-06-26T05:22:38.326Z,2.15
2019-06-26T05:25:07.971Z,1.95
2019-06-26T05:27:36.809Z,2.50
2019-06-26T05:30:10.258Z,2.70
2019-06-26T05:32:38.882Z,2.20
2019-06-26T05:35:08.187Z,2.52
2019-06-26T05:37:36.858Z,2.67
2019-06-26T05:40:10.688Z,2.58
2019-06-26T05:42:39.446Z,2.60
2019-06-26T05:45:09.315Z,3.05
2019-06-26T05:47:37.916Z,4.72
2019-06-26T05:50:11.402Z,2.37
2019-06-26T05:52:42.719Z,2.90
2019-06-26T05:55:10.666Z,2.30
2019-06-26T05:57:41.821Z,2.00
2019-06-26T06:00:10.409Z,2.22
2019-06-26T06:02:39.270Z,2.50
2019-06-26T06:05:08.968Z,3.00
2019-06-26T06:07:37.863Z,3.00
2019-06-26T06:10:07.663Z,2.75
2019-06-26T06:12:36.478Z,2.37
2019-06-26T06:15:07.846Z,3.55
2019-06-26T06:17:37.162Z,2.87
2019-06-26T06:20:08.273Z,2.50
2019-06-26T06:22:37.022Z,3.12
2019-06-26T06:25:06.987Z,2.90
2019-06-26T06:27:35.718Z,2.90
2019-06-26T06:30:06.162Z,2.50
2019-06-26T06:32:34.904Z,2.40
2019-06-26T06:35:03.686Z,2.45
2019-06-26T06:37:32.363Z,2.40
2019-06-26T06:40:01.087Z,2.22
2019-06-26T06:42:29.683Z,2.58
2019-06-26T06:44:58.355Z,2.47
2019-06-26T06:47:27.086Z,2.08
2019-06-26T06:49:55.973Z,2.55
2019-06-26T06:52:24.598Z,2.33
2019-06-26T06:54:53.319Z,2.22
2019-06-26T06:57:21.993Z,2.33
2019-06-26T06:59:50.627Z,2.08
2019-06-26T07:02:19.271Z,2.37
2019-06-26T07:04:47.975Z,3.15
2019-06-26T07:07:16.598Z,2.85
2019-06-26T07:09:45.207Z,2.35
2019-06-26T07:12:13.950Z,2.65
2019-06-26T07:14:42.624Z,2.72
2019-06-26T07:17:20.539Z,3.62
2019-06-26T07:19:41.518Z,2.87
2019-06-26T07:22:10.192Z,2.67
2019-06-26T07:24:38.857Z,1.85
2019-06-26T07:27:07.558Z,1.90
2019-06-26T07:29:36.285Z,2.67
2019-06-26T07:32:05.018Z,2.10
2019-06-26T07:34:33.618Z,1.87
2019-06-26T07:37:02.309Z,1.70
2019-06-26T07:39:31.123Z,1.90
2019-06-26T07:42:06.201Z,1.47
2019-06-26T07:44:34.770Z,2.00
2019-06-26T07:47:03.544Z,1.92
2019-06-26T07:49:32.131Z,1.95
2019-06-26T07:52:00.741Z,1.47
2019-06-26T07:54:29.412Z,4.42
2019-06-26T07:56:58.043Z,1.60
2019-06-26T07:59:26.659Z,1.30
2019-06-26T08:01:58.619Z,1.37
2019-06-26T08:04:27.643Z,1.23
2019-06-26T08:06:56.285Z,1.10
2019-06-26T08:09:25.173Z,1.05
2019-06-26T08:11:53.854Z,1.17
2019-06-26T08:14:22.478Z,1.20
2019-06-26T08:16:51.050Z,1.10
2019-06-26T08:19:19.716Z,1.00
2019-06-26T08:21:48.298Z,0.80
2019-06-26T08:24:16.890Z,1.00
2019-06-26T08:26:45.498Z,1.10
2019-06-26T08:29:14.067Z,1.00
2019-06-26T08:31:42.663Z,1.10
2019-06-26T08:34:11.227Z,0.88
2019-06-26T08:36:39.838Z,1.10
2019-06-26T08:39:08.684Z,1.10
2019-06-26T08:41:38.349Z,2.33
2019-06-26T08:44:07.026Z,1.00
2019-06-26T08:46:35.622Z,0.90
2019-06-26T08:49:04.349Z,0.90
2019-06-26T08:51:32.977Z,2.00
2019-06-26T08:54:04.698Z,1.12
2019-06-26T08:56:31.850Z,1.00
2019-06-26T08:59:00.454Z,0.90
2019-06-26T09:01:29.109Z,1.32
2019-06-26T09:03:57.706Z,2.90
2019-06-26T09:06:26.335Z,2.27
2019-06-26T09:08:55.010Z,1.12
2019-06-26T09:11:24.461Z,0.98
2019-06-26T09:13:53.194Z,1.22
2019-06-26T09:16:21.853Z,1.87
2019-06-26T09:18:50.522Z,1.00
2019-06-26T09:21:19.118Z,1.50
2019-06-26T09:23:47.915Z,0.90
2019-06-26T09:26:16.595Z,1.27
2019-06-26T09:28:45.224Z,1.05
2019-06-26T09:31:13.847Z,0.98
2019-06-26T09:33:42.424Z,2.17
2019-06-26T09:36:10.986Z,4.83
2019-06-26T09:38:39.913Z,1.22
2019-06-26T09:41:08.662Z,2.58
2019-06-26T09:43:37.222Z,1.25
2019-06-26T09:46:05.864Z,2.12
2019-06-26T09:48:48.273Z,1.17
2019-06-26T09:51:05.107Z,1.60
2019-06-26T09:53:46.740Z,1.90
2019-06-26T09:56:03.999Z,1.10
2019-06-26T09:58:32.557Z,1.10
2019-06-26T10:01:01.266Z,1.20
2019-06-26T10:03:29.867Z,1.52
2019-06-26T10:05:58.553Z,0.93
2019-06-26T10:08:27.209Z,1.02
2019-06-26T10:10:55.809Z,1.15
2019-06-26T10:13:24.478Z,1.00
2019-06-26T10:15:53.138Z,1.20
2019-06-26T10:18:21.755Z,1.12
2019-06-26T10:20:50.462Z,0.90
2019-06-26T10:23:19.263Z,1.00
2019-06-26T10:25:47.842Z,1.22
2019-06-26T10:28:16.638Z,1.10
2019-06-26T10:30:45.282Z,1.00
2019-06-26T10:33:13.905Z,1.20
2019-06-26T10:35:42.477Z,1.70
2019-06-26T10:38:11.287Z,1.20
2019-06-26T10:40:40.292Z,1.95
2019-06-26T10:43:08.846Z,2.30
2019-06-26T10:45:37.467Z,2.30
2019-06-26T10:48:06.250Z,2.72
2019-06-26T10:50:47.459Z,3.83
2019-06-26T10:53:05.230Z,4.60
2019-06-26T10:55:35.954Z,3.10
2019-06-26T10:58:04.627Z,3.20
2019-06-26T11:00:33.470Z,4.20
2019-06-26T11:03:02.116Z,4.35
2019-06-26T11:05:31.039Z,4.78
2019-06-26T11:07:59.711Z,4.00
2019-06-26T11:10:28.448Z,4.28
2019-06-26T11:12:57.061Z,4.10
2019-06-26T11:15:25.742Z,5.92
2019-06-26T11:17:54.530Z,4.70
2019-06-26T11:20:23.250Z,4.75
2019-06-26T11:22:51.861Z,4.20
2019-06-26T11:25:21.482Z,4.28
2019-06-26T11:27:50.331Z,4.10
2019-06-26T11:30:20.666Z,4.53
2019-06-26T11:32:49.302Z,4.10
2019-06-26T11:35:18.113Z,3.90
2019-06-26T11:37:48.214Z,4.10
2019-06-26T11:40:17.421Z,4.00
2019-06-26T11:42:46.297Z,5.03
2019-06-26T11:45:15.474Z,3.20
2019-06-26T11:47:45.857Z,4.08
2019-06-26T11:50:16.913Z,4.03
2019-06-26T11:52:45.482Z,6.08
2019-06-26T11:55:15.007Z,4.22
2019-06-26T11:57:43.747Z,4.20
2019-06-26T12:00:15.391Z,3.75
2019-06-26T12:02:44.049Z,3.72
2019-06-26T12:05:14.260Z,4.40
2019-06-26T12:07:43.022Z,4.10
2019-06-26T12:10:12.807Z,3.98
2019-06-26T12:12:41.758Z,3.72
2019-06-26T12:15:11.188Z,3.72
2019-06-26T12:17:39.819Z,5.37
2019-06-26T12:20:18.563Z,5.83
2019-06-26T12:22:39.334Z,5.78
2019-06-26T12:25:08.767Z,6.85
2019-06-26T12:27:37.445Z,6.85
2019-06-26T12:30:08.579Z,5.72
2019-06-26T12:32:42.242Z,5.97
2019-06-26T12:35:07.799Z,5.35
2019-06-26T12:37:38.096Z,5.62
2019-06-26T12:40:07.841Z,4.58
2019-06-26T12:42:36.581Z,3.72
2019-06-26T12:45:08.498Z,4.47
2019-06-26T12:47:37.179Z,3.03
2019-06-26T12:50:08.103Z,2.60
2019-06-26T12:52:36.689Z,2.12
2019-06-26T12:55:06.136Z,2.42
2019-06-26T12:57:34.905Z,2.98
2019-06-26T13:00:05.520Z,2.30
2019-06-26T13:02:34.325Z,2.17
2019-06-26T13:05:03.941Z,2.47
2019-06-26T13:07:32.691Z,2.37
2019-06-26T13:10:01.308Z,2.10
2019-06-26T13:12:30.053Z,1.90
2019-06-26T13:14:58.693Z,1.90
2019-06-26T13:17:27.253Z,2.10
2019-06-26T13:19:55.833Z,2.10
2019-06-26T13:22:24.543Z,1.80
2019-06-26T13:24:53.285Z,2.15
2019-06-26T13:27:21.946Z,1.95
2019-06-26T13:29:53.355Z,2.08
2019-06-26T13:32:21.935Z,2.30
2019-06-26T13:34:50.803Z,2.12
2019-06-26T13:37:19.547Z,2.15
2019-06-26T13:39:48.122Z,1.87
2019-06-26T13:42:16.687Z,1.45
2019-06-26T13:44:45.286Z,1.82
2019-06-26T13:47:14.336Z,2.58
2019-06-26T13:49:42.967Z,1.72
2019-06-26T13:52:11.538Z,1.72
2019-06-26T13:54:41.096Z,1.92
2019-06-26T13:57:09.674Z,1.67
2019-06-26T13:59:38.234Z,1.60
2019-06-26T14:02:07.080Z,1.70
2019-06-26T14:04:35.770Z,1.92
2019-06-26T14:07:08.672Z,1.62
2019-06-26T14:09:43.890Z,1.50
2019-06-26T14:12:12.470Z,1.62
2019-06-26T14:14:56.929Z,2.22
2019-06-26T14:17:17.758Z,2.10
2019-06-26T14:19:46.178Z,1.40
2019-06-26T14:22:14.900Z,1.72
2019-06-26T14:24:43.842Z,1.40
2019-06-26T14:27:12.508Z,1.47
2019-06-26T14:29:41.271Z,1.70
2019-06-26T14:32:09.878Z,1.55
2019-06-26T14:34:38.507Z,2.20
2019-06-26T14:37:07.203Z,2.25
2019-06-26T14:39:36.002Z,1.70
2019-06-26T14:42:04.755Z,1.82
2019-06-26T14:44:33.424Z,1.77
2019-06-26T14:47:02.053Z,2.20
2019-06-26T14:49:30.862Z,1.77
2019-06-26T14:51:59.430Z,2.15
2019-06-26T14:54:28.005Z,2.40
2019-06-26T14:56:56.674Z,1.72
2019-06-26T14:59:25.268Z,2.05
2019-06-26T15:01:53.961Z,2.10
2019-06-26T15:04:22.550Z,2.00
2019-06-26T15:06:51.186Z,2.30
2019-06-26T15:09:19.942Z,3.00
2019-06-26T15:11:50.033Z,2.15
2019-06-26T15:14:18.735Z,3.35
2019-06-26T15:16:47.361Z,3.05
2019-06-26T15:19:16.014Z,2.45
2019-06-26T15:21:57.507Z,1.92
2019-06-26T15:24:14.896Z,2.60
2019-06-26T15:26:45.070Z,2.05
2019-06-26T15:29:13.693Z,12.82
2019-06-26T15:31:42.266Z,10.00
2019-06-26T15:34:11.359Z,4.60
2019-06-26T15:36:39.955Z,1.80
2019-06-26T15:39:09.492Z,1.80
2019-06-26T15:41:38.058Z,1.90
2019-06-26T15:44:06.738Z,1.80
2019-06-26T15:46:35.399Z,1.98
2019-06-26T15:49:04.029Z,1.60
2019-06-26T15:51:32.670Z,2.42
2019-06-26T15:54:01.273Z,2.60
2019-06-26T15:56:29.965Z,3.02
2019-06-26T15:58:58.628Z,1.92
2019-06-26T16:01:27.287Z,2.00
2019-06-26T16:03:56.056Z,2.80
2019-06-26T16:06:24.798Z,1.62
2019-06-26T16:08:53.473Z,3.10
2019-06-26T16:11:23.468Z,2.30
2019-06-26T16:13:52.381Z,1.85
2019-06-26T16:16:21.185Z,2.60
2019-06-26T16:19:00.043Z,2.20
2019-06-26T16:21:29.965Z,2.10
2019-06-26T16:23:58.542Z,1.65
2019-06-26T16:26:27.216Z,2.80
2019-06-26T16:28:55.822Z,2.20
2019-06-26T16:31:24.492Z,3.92
2019-06-26T16:33:53.217Z,3.75
2019-06-26T16:36:21.862Z,3.33
2019-06-26T16:38:50.705Z,2.90
2019-06-26T16:41:19.925Z,3.17
2019-06-26T16:43:48.745Z,3.95
2019-06-26T16:46:17.280Z,3.10
2019-06-26T16:48:45.875Z,2.98
2019-06-26T16:51:14.711Z,3.05
2019-06-26T16:53:43.310Z,2.75
2019-06-26T16:56:12.120Z,2.08
2019-06-26T16:58:40.675Z,1.62
2019-06-26T17:01:09.322Z,2.20
2019-06-26T17:03:37.955Z,2.30
2019-06-26T17:06:06.747Z,2.22
2019-06-26T17:08:35.545Z,1.65
2019-06-26T17:11:04.360Z,2.30
2019-06-26T17:13:32.925Z,2.00
2019-06-26T17:16:01.520Z,2.37
2019-06-26T17:18:30.394Z,1.67
2019-06-26T17:20:59.183Z,1.95
2019-06-26T17:23:28.832Z,2.87
2019-06-26T17:25:57.438Z,2.20
2019-06-26T17:28:26.626Z,2.47
2019-06-26T17:30:55.427Z,2.35
2019-06-26T17:33:24.297Z,1.90
2019-06-26T17:35:53.215Z,2.27
2019-06-26T17:38:21.818Z,1.72
2019-06-26T17:40:50.587Z,1.60
2019-06-26T17:43:19.825Z,1.60
2019-06-26T17:45:48.481Z,2.40
2019-06-26T17:48:17.150Z,2.12
2019-06-26T17:50:45.757Z,2.33
2019-06-26T17:53:21.643Z,2.40
2019-06-26T17:55:44.683Z,1.80
2019-06-26T17:58:13.286Z,2.02
2019-06-26T18:00:41.909Z,1.75
2019-06-26T18:03:10.498Z,2.15
2019-06-26T18:05:39.221Z,2.00
2019-06-26T18:08:08.343Z,1.67
2019-06-26T18:10:37.108Z,2.33
2019-06-26T18:13:05.736Z,1.80
2019-06-26T18:15:35.046Z,2.27
2019-06-26T18:18:05.138Z,1.70
2019-06-26T18:20:34.006Z,1.55
2019-06-26T18:23:07.475Z,2.33
2019-06-26T18:25:33.585Z,2.62
2019-06-26T18:28:02.186Z,2.52
2019-06-26T18:30:31.188Z,2.08
2019-06-26T18:32:59.857Z,2.15
2019-06-26T18:35:28.418Z,2.52
2019-06-26T18:37:57.025Z,1.70
2019-06-26T18:40:25.721Z,1.70
2019-06-26T18:42:55.933Z,2.10
2019-06-26T18:45:24.540Z,2.47
2019-06-26T18:47:53.158Z,2.25
2019-06-26T18:50:21.764Z,2.65
2019-06-26T18:52:50.423Z,2.90
2019-06-26T18:55:19.061Z,2.45
2019-06-26T18:57:47.666Z,2.40
2019-06-26T19:00:16.786Z,2.22
2019-06-26T19:02:45.443Z,2.05
2019-06-26T19:05:14.426Z,2.00
2019-06-26T19:07:45.877Z,1.80
2019-06-26T19:10:14.805Z,2.30
2019-06-26T19:12:43.452Z,2.40
2019-06-26T19:15:12.717Z,2.10
2019-06-26T19:17:42.586Z,1.87
2019-06-26T19:20:12.851Z,2.20
2019-06-26T19:22:41.458Z,2.60
2019-06-26T19:25:12.683Z,2.50
2019-06-26T19:27:41.321Z,2.80
2019-06-26T19:30:10.599Z,2.42
2019-06-26T19:32:39.446Z,2.85
2019-06-26T19:35:18.658Z,2.60
2019-06-26T19:37:39.183Z,2.52
2019-06-26T19:40:09.171Z,2.50
2019-06-26T19:42:37.959Z,2.45
2019-06-26T19:45:12.298Z,2.75
2019-06-26T19:47:40.887Z,2.52
2019-06-26T19:50:09.909Z,2.40
2019-06-26T19:52:38.716Z,2.98
2019-06-26T19:55:08.697Z,2.45
2019-06-26T19:57:37.397Z,2.77
2019-06-26T20:00:08.617Z,2.62
2019-06-26T20:02:37.278Z,2.98
2019-06-26T20:05:07.409Z,2.67
2019-06-26T20:07:37.552Z,4.05
2019-06-26T20:10:07.294Z,3.90
2019-06-26T20:12:35.999Z,4.35
2019-06-26T20:15:06.012Z,4.78
2019-06-26T20:17:34.799Z,7.28
2019-06-26T20:20:05.942Z,6.05
2019-06-26T20:22:34.607Z,4.20
2019-06-26T20:25:04.066Z,3.85
2019-06-26T20:27:32.623Z,3.92
2019-06-26T20:30:01.473Z,5.58
2019-06-26T20:32:30.121Z,7.65
2019-06-26T20:34:58.765Z,5.53
2019-06-26T20:37:27.383Z,6.58
2019-06-26T20:39:55.942Z,7.08
2019-06-26T20:42:24.651Z,7.05
2019-06-26T20:44:53.324Z,7.65
2019-06-26T20:47:21.994Z,11.43
2019-06-26T20:49:53.539Z,18.70
2019-06-26T20:52:20.871Z,18.98
2019-06-26T20:55:00.738Z,10.68
2019-06-26T20:57:19.752Z,8.23
2019-06-26T20:59:48.326Z,8.60
2019-06-26T21:02:17.018Z,9.18
2019-06-26T21:04:45.655Z,8.60
2019-06-26T21:07:14.258Z,10.18
2019-06-26T21:09:42.835Z,9.43
2019-06-26T21:12:11.775Z,7.30
2019-06-26T21:14:40.366Z,9.08
2019-06-26T21:17:09.094Z,7.72
2019-06-26T21:19:37.760Z,7.67
2019-06-26T21:22:08.881Z,7.08
2019-06-26T21:24:36.788Z,7.97
2019-06-26T21:27:05.334Z,7.03
2019-06-26T21:29:34.066Z,7.37
2019-06-26T21:32:02.675Z,7.28
2019-06-26T21:34:31.309Z,7.40
2019-06-26T21:36:59.997Z,6.47
2019-06-26T21:39:28.587Z,6.75
2019-06-26T21:41:57.293Z,6.03
2019-06-26T21:44:25.884Z,7.12
2019-06-26T21:46:54.530Z,8.25
2019-06-26T21:49:23.103Z,7.78
2019-06-26T21:51:51.873Z,8.33
2019-06-26T21:54:20.563Z,9.38
2019-06-26T21:56:49.216Z,8.05
2019-06-26T21:59:17.769Z,8.65
2019-06-26T22:01:48.115Z,9.48
2019-06-26T22:04:16.916Z,11.00
2019-06-26T22:06:45.774Z,12.18
2019-06-26T22:09:14.635Z,11.05
2019-06-26T22:11:43.252Z,9.28
2019-06-26T22:14:11.994Z,9.58
2019-06-26T22:16:40.760Z,8.28
2019-06-26T22:19:09.447Z,8.50
2019-06-26T22:21:40.484Z,6.87
2019-06-26T22:24:09.103Z,8.08
2019-06-26T22:26:37.855Z,8.00
2019-06-26T22:29:06.470Z,8.35
2019-06-26T22:31:35.158Z,7.60
2019-06-26T22:34:04.660Z,7.45
2019-06-26T22:36:33.448Z,7.45
2019-06-26T22:39:02.133Z,7.75
2019-06-26T22:41:30.924Z,8.50
2019-06-26T22:43:59.559Z,9.13
2019-06-26T22:46:30.043Z,8.73
2019-06-26T22:48:58.813Z,8.85
2019-06-26T22:51:27.596Z,8.50
2019-06-26T22:53:56.373Z,8.83
2019-06-26T22:56:25.536Z,9.28
2019-06-26T22:58:54.155Z,8.95
2019-06-26T23:01:22.799Z,8.55
2019-06-26T23:03:51.434Z,8.98
2019-06-26T23:06:20.042Z,8.75
2019-06-26T23:08:48.727Z,8.68
2019-06-26T23:11:17.383Z,7.83
2019-06-26T23:13:46.024Z,7.15
2019-06-26T23:16:15.373Z,8.45
2019-06-26T23:18:44.160Z,8.90
2019-06-26T23:21:13.003Z,8.95
2019-06-26T23:23:41.768Z,9.50
2019-06-26T23:26:23.489Z,8.83
2019-06-26T23:28:40.691Z,9.15
2019-06-26T23:31:09.355Z,9.88
2019-06-26T23:33:38.044Z,8.90
2019-06-26T23:36:06.746Z,7.67
2019-06-26T23:38:35.348Z,8.58
2019-06-26T23:41:04.015Z,8.60
2019-06-26T23:43:33.983Z,9.15
2019-06-26T23:46:02.633Z,8.50
2019-06-26T23:48:31.204Z,9.40
2019-06-26T23:50:59.956Z,7.10
2019-06-26T23:53:28.547Z,6.65
2019-06-26T23:55:57.126Z,7.30
2019-06-26T23:58:25.796Z,7.87
